Hidden Valley, Texas
Current Conditions -  °F | °C
As of 9:35 AM on Thursday 30 Oct 2014 (Local Time) from KOCH Reporting Station
Clear Clear  
Wind Chill: 59°   Ceiling: Unl
Heat Index: 59°   Visibility: 10mi
Dew Point: 48°   Wind: 6mph
Humidity: 67%   Direction: 130°SE
Pressure: 30.19"   Gusts: NA
Location:  31.7931°N, 94.5281°W
Report Text: KOCH 301435Z AUTO 13005KT 10SM CLR 15/09 A3019 RMK AO1
Loading
Personal Weather Stations






























Interactive Weather Map
Tropical Storm Tracking
New forecast layout! Learn more

10-Day Weather Forecast

Advertisements
Track Severe Weather on mobile